createdAt,value
2024-05-09T00:01:54.976Z,2.80
2024-05-09T00:06:58.075Z,2.80
2024-05-09T00:12:01.197Z,2.90
2024-05-09T00:17:04.328Z,3.10
2024-05-09T00:22:07.568Z,3.20
2024-05-09T00:27:12.670Z,2.90
2024-05-09T00:32:16.240Z,3.00
2024-05-09T00:37:19.419Z,3.10
2024-05-09T00:42:22.380Z,3.40
2024-05-09T00:47:25.631Z,3.00
2024-05-09T00:52:29.964Z,3.00
2024-05-09T00:57:33.083Z,3.40
2024-05-09T01:02:36.199Z,3.40
2024-05-09T01:07:42.562Z,3.20
2024-05-09T01:12:45.673Z,3.20
2024-05-09T01:17:48.986Z,3.70
2024-05-09T01:22:54.096Z,3.30
2024-05-09T01:27:57.109Z,3.20
2024-05-09T01:33:00.231Z,3.40
2024-05-09T01:38:03.657Z,3.30
2024-05-09T01:43:08.692Z,3.30
2024-05-09T01:48:12.865Z,3.60
2024-05-09T01:53:16.044Z,3.30
2024-05-09T01:58:19.285Z,3.10
2024-05-09T02:03:22.491Z,3.20
2024-05-09T02:08:25.700Z,3.30
2024-05-09T02:13:28.791Z,2.90
2024-05-09T02:18:31.849Z,3.20
2024-05-09T02:23:35.112Z,3.30
2024-05-09T02:28:38.051Z,3.30
2024-05-09T02:33:41.256Z,3.40
2024-05-09T02:38:44.497Z,3.40
2024-05-09T02:43:47.649Z,3.40
2024-05-09T02:48:50.908Z,3.10
2024-05-09T02:53:54.299Z,3.40
2024-05-09T02:58:57.266Z,3.30
2024-05-09T03:04:00.266Z,3.40
2024-05-09T03:09:04.841Z,3.00
2024-05-09T03:14:08.003Z,3.60
2024-05-09T03:19:11.126Z,3.60
2024-05-09T03:24:14.323Z,3.40
2024-05-09T03:29:17.519Z,3.60
2024-05-09T03:34:20.716Z,3.60
2024-05-09T03:39:24.818Z,3.60
2024-05-09T03:44:28.191Z,3.70
2024-05-09T03:49:31.394Z,3.50
2024-05-09T03:54:35.138Z,3.50
2024-05-09T03:59:38.205Z,3.50
2024-05-09T04:04:44.749Z,3.90
2024-05-09T04:09:47.931Z,3.30
2024-05-09T04:14:51.062Z,3.40
2024-05-09T04:19:54.271Z,3.60
2024-05-09T04:24:57.377Z,3.50
2024-05-09T04:30:00.525Z,3.70
2024-05-09T04:35:04.390Z,3.40
2024-05-09T04:40:14.162Z,3.90
2024-05-09T04:45:23.673Z,3.70
2024-05-09T04:50:35.437Z,3.70
2024-05-09T04:55:41.453Z,3.60
2024-05-09T05:00:44.574Z,3.60
2024-05-09T05:05:47.739Z,4.10
2024-05-09T05:10:53.865Z,3.50
2024-05-09T05:15:58.223Z,3.60
2024-05-09T05:21:02.016Z,3.90
2024-05-09T05:26:05.243Z,3.90
2024-05-09T05:31:08.643Z,3.20
2024-05-09T05:36:11.956Z,3.40
2024-05-09T05:41:15.034Z,3.20
2024-05-09T05:46:19.043Z,3.20
2024-05-09T05:51:22.103Z,3.20
2024-05-09T05:56:26.409Z,3.00
2024-05-09T06:01:30.914Z,3.00
2024-05-09T06:06:34.014Z,3.30
2024-05-09T06:11:40.162Z,3.60
2024-05-09T06:16:43.414Z,3.50
2024-05-09T06:21:46.375Z,3.50
2024-05-09T06:26:49.394Z,3.20
2024-05-09T06:31:52.501Z,3.60
2024-05-09T06:36:55.343Z,3.40
2024-05-09T06:41:58.419Z,3.50
2024-05-09T06:47:01.641Z,3.10
2024-05-09T06:52:05.022Z,3.40
2024-05-09T06:57:08.002Z,3.10
2024-05-09T07:02:10.967Z,3.30
2024-05-09T07:07:14.063Z,2.90
2024-05-09T07:12:18.517Z,3.20
2024-05-09T07:17:21.703Z,2.70
2024-05-09T07:22:25.495Z,2.70
2024-05-09T07:27:28.669Z,2.30
2024-05-09T07:32:32.088Z,2.50
2024-05-09T07:37:35.045Z,2.70
2024-05-09T07:42:38.215Z,3.30
2024-05-09T07:49:11.988Z,2.40
2024-05-09T07:53:36.215Z,2.70
2024-05-09T08:03:31.511Z,2.40
2024-05-09T08:08:34.623Z,2.60
2024-05-09T08:13:37.654Z,2.40
2024-05-09T08:18:41.665Z,2.60
2024-05-09T08:23:44.706Z,2.50
2024-05-09T08:28:47.775Z,2.40
2024-05-09T08:33:55.231Z,2.40
2024-05-09T08:38:58.468Z,2.40
2024-05-09T08:44:02.049Z,2.70
2024-05-09T08:49:05.376Z,2.60
2024-05-09T08:54:08.742Z,3.00
2024-05-09T08:59:23.753Z,2.90
2024-05-09T09:04:28.298Z,2.40
2024-05-09T09:09:35.097Z,2.70
2024-05-09T09:14:38.172Z,2.80
2024-05-09T09:19:43.204Z,2.30
2024-05-09T09:24:46.153Z,2.60
2024-05-09T09:29:49.231Z,2.60
2024-05-09T09:34:52.306Z,2.60
2024-05-09T09:39:56.014Z,2.60
2024-05-09T09:45:04.707Z,2.90
2024-05-09T09:50:14.427Z,2.50
2024-05-09T09:55:22.472Z,2.70
2024-05-09T10:00:32.502Z,2.60
2024-05-09T10:05:37.415Z,2.10
2024-05-09T10:10:47.124Z,2.20
2024-05-09T10:15:54.385Z,2.50
2024-05-09T10:20:59.302Z,2.60
2024-05-09T10:26:05.219Z,2.40
2024-05-09T10:31:10.794Z,2.50
2024-05-09T10:36:18.423Z,2.80
2024-05-09T10:41:23.200Z,2.80
2024-05-09T10:46:26.572Z,2.40
2024-05-09T10:51:30.059Z,2.30
2024-05-09T10:56:33.183Z,2.50
2024-05-09T11:01:36.573Z,2.90
2024-05-09T11:06:40.213Z,2.50
2024-05-09T11:11:43.285Z,2.70
2024-05-09T11:16:46.404Z,2.80
2024-05-09T11:21:52.699Z,2.30
2024-05-09T11:26:58.037Z,2.40
2024-05-09T11:32:01.296Z,2.30
2024-05-09T11:37:04.765Z,2.40
2024-05-09T11:42:08.678Z,2.60
2024-05-09T11:47:11.713Z,2.60
2024-05-09T11:52:14.634Z,2.90
2024-05-09T11:57:17.716Z,2.30
2024-05-09T12:02:20.883Z,2.10
2024-05-09T12:07:24.277Z,2.20
2024-05-09T12:12:28.400Z,2.30
2024-05-09T12:17:31.595Z,2.10
2024-05-09T12:22:34.705Z,2.10
2024-05-09T12:27:38.899Z,2.10
2024-05-09T12:32:42.158Z,2.30
2024-05-09T12:37:45.297Z,2.10
2024-05-09T12:42:49.576Z,2.20
2024-05-09T12:47:52.839Z,2.10
2024-05-09T12:52:56.002Z,2.00
2024-05-09T12:57:59.574Z,2.10
2024-05-09T13:03:02.879Z,2.20
2024-05-09T13:08:07.173Z,2.60
2024-05-09T13:13:10.899Z,2.30
2024-05-09T13:18:14.178Z,2.40
2024-05-09T13:23:17.361Z,2.60
2024-05-09T13:28:21.315Z,2.20
2024-05-09T13:33:24.464Z,1.90
2024-05-09T13:38:27.569Z,2.20
2024-05-09T13:43:30.621Z,2.10
2024-05-09T13:48:34.565Z,2.10
2024-05-09T13:53:37.864Z,2.10
2024-05-09T13:58:42.086Z,2.40
2024-05-09T14:03:45.379Z,2.30
2024-05-09T14:08:48.571Z,2.10
2024-05-09T14:13:51.440Z,2.20
2024-05-09T14:18:54.409Z,2.30
2024-05-09T14:23:57.636Z,2.20
2024-05-09T14:29:00.728Z,2.00
2024-05-09T14:34:04.005Z,2.20
2024-05-09T14:39:07.349Z,2.30
2024-05-09T14:44:12.480Z,2.20
2024-05-09T14:49:15.560Z,2.10
2024-05-09T14:54:18.584Z,2.50
2024-05-09T14:59:21.536Z,2.30
2024-05-09T15:04:24.702Z,2.20
2024-05-09T15:09:35.550Z,2.50
2024-05-09T15:14:38.605Z,2.20
2024-05-09T15:19:41.617Z,2.40
2024-05-09T15:24:46.266Z,2.10
2024-05-09T15:29:49.251Z,2.50
2024-05-09T15:34:52.213Z,1.90
2024-05-09T15:39:55.156Z,2.10
2024-05-09T15:44:58.184Z,2.20
2024-05-09T15:50:01.191Z,2.30
2024-05-09T15:55:05.113Z,2.10
2024-05-09T16:00:15.236Z,2.10
2024-05-09T16:05:24.972Z,1.90
2024-05-09T16:10:32.705Z,2.20
2024-05-09T16:15:37.197Z,2.00
2024-05-09T16:20:42.333Z,2.20
2024-05-09T16:25:47.788Z,2.00
2024-05-09T16:30:51.586Z,2.20
2024-05-09T16:35:54.546Z,2.00
2024-05-09T16:40:57.507Z,1.90
2024-05-09T16:46:01.297Z,2.00
2024-05-09T16:51:04.268Z,1.90
2024-05-09T16:56:07.576Z,1.90
2024-05-09T17:01:13.376Z,1.80
2024-05-09T17:06:16.440Z,2.00
2024-05-09T17:11:19.450Z,2.30
2024-05-09T17:16:22.814Z,1.90
2024-05-09T17:21:26.145Z,1.90
2024-05-09T17:26:30.915Z,1.60
2024-05-09T17:31:34.053Z,1.80
2024-05-09T17:36:37.243Z,1.90
2024-05-09T17:41:40.425Z,2.00
2024-05-09T17:46:43.722Z,1.80
2024-05-09T17:51:54.317Z,1.90
2024-05-09T17:56:58.451Z,1.80
2024-05-09T18:02:01.769Z,1.90
2024-05-09T18:07:05.661Z,1.90
2024-05-09T18:12:08.841Z,2.00
2024-05-09T18:17:13.357Z,1.90
2024-05-09T18:22:16.455Z,1.80
2024-05-09T18:27:19.734Z,1.80
2024-05-09T18:32:22.848Z,1.90
2024-05-09T18:37:26.664Z,2.00
2024-05-09T18:42:29.657Z,1.80
2024-05-09T18:47:33.873Z,1.90
2024-05-09T18:52:36.899Z,2.00
2024-05-09T18:57:39.897Z,2.20
2024-05-09T19:02:43.039Z,2.00
2024-05-09T19:07:46.432Z,2.10
2024-05-09T19:12:49.584Z,2.20
2024-05-09T19:17:52.852Z,2.00
2024-05-09T19:22:56.258Z,2.50
2024-05-09T19:28:08.852Z,2.50
2024-05-09T19:33:21.047Z,2.30
2024-05-09T19:38:24.172Z,2.30
2024-05-09T19:43:27.649Z,3.10
2024-05-09T19:48:30.652Z,2.40
2024-05-09T19:53:33.759Z,2.70
2024-05-09T19:58:36.913Z,2.70
2024-05-09T20:03:40.063Z,2.70
2024-05-09T20:08:43.749Z,3.00
2024-05-09T20:13:46.696Z,3.00
2024-05-09T20:18:49.948Z,2.70
2024-05-09T20:23:54.263Z,3.00
2024-05-09T20:28:57.303Z,2.80
2024-05-09T20:34:00.317Z,2.90
2024-05-09T20:39:03.476Z,3.30
2024-05-09T20:44:37.785Z,3.10
2024-05-09T20:49:47.131Z,3.30
2024-05-09T20:54:50.218Z,2.80
2024-05-09T20:59:53.143Z,3.00
2024-05-09T21:04:56.242Z,3.30
2024-05-09T21:09:59.339Z,3.10
2024-05-09T21:15:02.352Z,3.40
2024-05-09T21:20:11.420Z,3.40
2024-05-09T21:25:17.631Z,3.40
2024-05-09T21:30:31.652Z,3.50
2024-05-09T21:35:44.541Z,3.50
2024-05-09T21:40:48.540Z,3.40
2024-05-09T21:45:51.697Z,3.70
2024-05-09T21:50:54.720Z,3.90
2024-05-09T21:55:57.693Z,3.60
2024-05-09T22:01:00.771Z,4.10
2024-05-09T22:06:03.895Z,4.40
2024-05-09T22:11:07.081Z,4.20
2024-05-09T22:16:10.130Z,4.40
2024-05-09T22:21:13.115Z,4.60
2024-05-09T22:26:16.365Z,4.80
2024-05-09T22:31:19.449Z,5.10
2024-05-09T22:36:22.540Z,5.20
2024-05-09T22:41:28.358Z,4.70
2024-05-09T22:46:31.637Z,4.70
2024-05-09T22:51:37.692Z,5.00
2024-05-09T22:56:40.720Z,4.80
2024-05-09T23:01:43.825Z,5.30
2024-05-09T23:06:47.197Z,5.20
2024-05-09T23:11:50.269Z,5.30
2024-05-09T23:16:53.307Z,5.50
2024-05-09T23:21:56.451Z,6.00
2024-05-09T23:26:59.458Z,5.70
2024-05-09T23:32:04.260Z,5.70
2024-05-09T23:37:07.282Z,5.30
2024-05-09T23:42:10.334Z,5.10
2024-05-09T23:47:13.508Z,5.40
2024-05-09T23:52:16.702Z,5.20
2024-05-09T23:57:19.956Z,5.80
